Rochester, Massachusetts
Current Conditions -  °F | °C
As of 8:53 AM on Saturday 20 Dec 2014 (Local Time) from KEWB Reporting Station
Overcast Overcast  
Wind Chill: 26°   Ceiling: 2600
Heat Index: 32°   Visibility: 10mi
Dew Point: 25°   Wind: 7mph
Humidity: 75%   Direction: 340°NNW
Pressure: 30.26"   Gusts: NA
Location:  41.73°N, 70.82°W
Report Text: KEWB 201353Z 34006KT 10SM OVC026 00/M04 A3026 RMK AO2 SLP247 T00001039
Loading
Personal Weather Stations






























Interactive Weather Map New forecast layout! Learn more

10-Day Weather Forecast

Advertisements
Track Severe Weather on mobile